PDT,Max TemperatureF,Mean TemperatureF,Min TemperatureF,Max Dew PointF,MeanDew PointF,Min DewpointF,Max Humidity, Mean Humidity, Min Humidity, Max Sea Level PressureIn, Mean Sea Level PressureIn, Min Sea Level PressureIn, Max VisibilityMiles, Mean VisibilityMiles, Min VisibilityMiles, Max Wind SpeedMPH, Mean Wind SpeedMPH, Max Gust SpeedMPH,PrecipitationIn, CloudCover, Events, WindDirDegrees
2013-8-1,77,67,57,45,37,30,63,34,18,30.14,30.10,30.05,10,10,7,23,14,30,0.00,0,,298
2013-8-2,78,64,51,36,29,19,47,25,12,30.08,30.06,30.04,10,10,9,18,11,23,0.00,0,,307
2013-8-3,86,70,55,32,25,14,36,20,8,30.11,30.08,30.05,10,10,9,17,7,23,0.00,0,,306
2013-8-4,86,68,50,36,30,21,50,24,9,30.13,30.10,30.06,10,10,9,17,7,23,0.00,0,,305
2013-8-5,84,67,50,39,35,28,50,29,16,30.12,30.10,30.06,10,10,9,18,7,26,0.00,0,,306
2013-8-6,84,70,55,41,38,27,54,31,13,30.14,30.10,30.08,10,10,9,20,9,25,0.00,0,,297
2013-8-7,77,66,55,45,39,32,55,37,25,30.16,30.13,30.10,10,10,9,22,12,28,0.00,0,,298
2013-8-8,77,65,53,46,40,30,77,41,19,30.11,30.07,30.02,10,10,8,21,12,28,0.00,0,,300
2013-8-9,78,64,51,43,41,36,67,41,24,30.08,30.04,30.01,10,10,9,17,8,22,0.00,0,,303
2013-8-10,77,67,57,45,42,37,63,42,25,30.13,30.10,30.07,10,10,8,20,12,29,0.00,0,,300
2013-8-11,78,66,55,46,43,37,67,42,27,30.12,30.10,30.05,10,10,8,18,10,23,0.00,0,,300
2013-8-12,82,66,51,45,43,39,67,40,23,30.13,30.10,30.07,10,10,9,18,9,24,0.00,0,,301
2013-8-13,86,72,57,45,42,39,63,36,20,30.13,30.11,30.08,10,10,9,18,8,21,0.00,0,,298
2013-8-14,86,70,55,45,40,36,58,32,18,30.13,30.10,30.06,10,10,9,17,7,22,0.00,0,,304
2013-8-15,89,71,53,41,38,36,58,30,15,30.14,30.10,30.08,10,10,3,18,6,24,0.00,0,,308
2013-8-16,86,75,64,48,42,36,37,30,22,30.14,30.12,30.09,10,10,7,17,7,25,0.00,0,,306
2013-8-17,86,82,82,41,39,37,20,20,20,30.13,30.05,30.02,10,10,10,16,15,21,0.00,,,314
2013-8-18,93,73,53,52,43,36,62,30,16,30.10,30.05,29.99,10,10,5,22,7,28,0.01,1,Rain-Thunderstorm,121
2013-8-19,89,78,64,55,52,46,64,41,27,30.12,30.08,30.01,10,10,2,36,13,44,0.00,1,Rain-Thunderstorm,118
2013-8-20,91,75,59,52,38,25,72,33,9,30.07,30.04,30.00,10,10,10,17,5,24,0.00,0,,144
2013-8-21,91,78,64,46,37,28,43,23,14,30.09,30.05,30.02,10,10,3,18,6,28,0.00,0,,150
2013-8-22,91,76,62,48,39,28,45,30,10,30.10,30.06,30.00,10,10,9,18,6,30,0.00,0,,261
2013-8-23,84,68,53,46,41,28,58,38,13,30.06,30.00,29.95,10,10,8,21,6,26,0.00,0,,302
2013-8-24,82,65,48,45,40,37,71,40,20,30.05,30.00,29.95,10,10,8,18,6,25,0.00,0,,309
2013-8-25,84,66,48,45,38,23,66,39,13,30.11,30.06,30.03,10,10,9,18,6,26,0.00,0,,20
2013-8-26,82,68,53,59,49,37,73,51,32,30.12,30.08,30.03,10,10,9,16,6,23,0.00,1,,116
2013-8-27,84,70,57,57,54,50,82,57,37,30.07,30.02,29.96,10,10,9,15,6,23,0.00,2,,132
2013-8-28,87,71,55,54,49,46,77,48,24,30.11,30.05,30.00,10,10,8,20,6,28,0.00,1,,185
2013-8-29,86,70,55,52,48,45,67,45,23,30.20,30.15,30.11,10,10,8,18,6,23,0.00,0,,310
2013-8-30,87,73,59,54,51,50,72,46,27,30.20,30.16,30.11,10,10,7,18,6,24,0.00,1,,304
2013-8-31,86,76,66,52,50,46,60,40,27,30.15,30.12,30.06,10,10,9,20,9,28,0.00,1,,301